sensor_id;sensor_type;location;lat;lon;timestamp;P1;durP1;ratioP1;P2;durP2;ratioP2
46036;SDS011;31769;49.304;8.428;2023-03-01T00:01:36;22.90;;;14.50;;
46036;SDS011;31769;49.304;8.428;2023-03-01T00:04:37;20.95;;;14.52;;
46036;SDS011;31769;49.304;8.428;2023-03-01T00:07:38;27.65;;;15.40;;
46036;SDS011;31769;49.304;8.428;2023-03-01T00:10:39;23.20;;;15.10;;
46036;SDS011;31769;49.304;8.428;2023-03-01T00:13:40;21.90;;;14.55;;
46036;SDS011;31769;49.304;8.428;2023-03-01T00:16:42;23.88;;;14.77;;
46036;SDS011;31769;49.304;8.428;2023-03-01T00:19:44;27.13;;;14.02;;
46036;SDS011;31769;49.304;8.428;2023-03-01T00:22:45;23.92;;;15.00;;
46036;SDS011;31769;49.304;8.428;2023-03-01T00:25:46;26.67;;;15.98;;
46036;SDS011;31769;49.304;8.428;2023-03-01T00:28:47;24.42;;;14.93;;
46036;SDS011;31769;49.304;8.428;2023-03-01T00:31:48;24.65;;;15.57;;
46036;SDS011;31769;49.304;8.428;2023-03-01T00:34:48;23.58;;;15.38;;
46036;SDS011;31769;49.304;8.428;2023-03-01T00:37:54;28.27;;;16.08;;
46036;SDS011;31769;49.304;8.428;2023-03-01T00:41:02;23.65;;;15.43;;
46036;SDS011;31769;49.304;8.428;2023-03-01T00:44:07;28.10;;;16.25;;
46036;SDS011;31769;49.304;8.428;2023-03-01T00:47:09;22.30;;;15.70;;
46036;SDS011;31769;49.304;8.428;2023-03-01T00:50:10;24.48;;;16.38;;
46036;SDS011;31769;49.304;8.428;2023-03-01T00:53:11;22.55;;;15.63;;
46036;SDS011;31769;49.304;8.428;2023-03-01T00:56:12;21.25;;;15.00;;
46036;SDS011;31769;49.304;8.428;2023-03-01T00:59:14;28.67;;;17.92;;
46036;SDS011;31769;49.304;8.428;2023-03-01T01:02:15;26.00;;;16.23;;
46036;SDS011;31769;49.304;8.428;2023-03-01T01:05:15;24.02;;;15.90;;
46036;SDS011;31769;49.304;8.428;2023-03-01T01:08:20;25.48;;;16.75;;
46036;SDS011;31769;49.304;8.428;2023-03-01T01:11:22;25.52;;;17.63;;
46036;SDS011;31769;49.304;8.428;2023-03-01T01:14:24;25.42;;;17.05;;
46036;SDS011;31769;49.304;8.428;2023-03-01T01:17:25;26.08;;;17.05;;
46036;SDS011;31769;49.304;8.428;2023-03-01T01:20:26;24.63;;;16.27;;
46036;SDS011;31769;49.304;8.428;2023-03-01T01:23:26;25.23;;;16.25;;
46036;SDS011;31769;49.304;8.428;2023-03-01T01:26:28;24.58;;;15.43;;
46036;SDS011;31769;49.304;8.428;2023-03-01T01:29:30;25.40;;;15.65;;
46036;SDS011;31769;49.304;8.428;2023-03-01T01:32:31;23.75;;;15.20;;
46036;SDS011;31769;49.304;8.428;2023-03-01T01:35:32;24.35;;;15.85;;
46036;SDS011;31769;49.304;8.428;2023-03-01T01:38:33;27.75;;;16.20;;
46036;SDS011;31769;49.304;8.428;2023-03-01T01:41:34;26.08;;;15.23;;
46036;SDS011;31769;49.304;8.428;2023-03-01T01:44:35;27.60;;;15.93;;
46036;SDS011;31769;49.304;8.428;2023-03-01T01:47:35;28.75;;;16.50;;
46036;SDS011;31769;49.304;8.428;2023-03-01T01:50:37;25.35;;;16.73;;
46036;SDS011;31769;49.304;8.428;2023-03-01T01:53:40;30.17;;;18.17;;
46036;SDS011;31769;49.304;8.428;2023-03-01T01:56:46;28.63;;;18.42;;
46036;SDS011;31769;49.304;8.428;2023-03-01T01:59:53;26.42;;;17.30;;
46036;SDS011;31769;49.304;8.428;2023-03-01T02:03:01;27.08;;;16.67;;
46036;SDS011;31769;49.304;8.428;2023-03-01T02:06:12;34.20;;;18.00;;
46036;SDS011;31769;49.304;8.428;2023-03-01T02:09:20;28.83;;;18.85;;
46036;SDS011;31769;49.304;8.428;2023-03-01T02:12:23;26.60;;;17.08;;
46036;SDS011;31769;49.304;8.428;2023-03-01T02:15:24;27.48;;;16.55;;
46036;SDS011;31769;49.304;8.428;2023-03-01T02:18:27;25.80;;;16.42;;
46036;SDS011;31769;49.304;8.428;2023-03-01T02:31:17;29.55;;;17.80;;
46036;SDS011;31769;49.304;8.428;2023-03-01T02:34:38;25.08;;;16.95;;
46036;SDS011;31769;49.304;8.428;2023-03-01T02:37:40;29.05;;;16.52;;
46036;SDS011;31769;49.304;8.428;2023-03-01T02:40:42;26.75;;;17.90;;
46036;SDS011;31769;49.304;8.428;2023-03-01T02:43:44;31.08;;;18.52;;
46036;SDS011;31769;49.304;8.428;2023-03-01T02:46:47;28.15;;;17.88;;
46036;SDS011;31769;49.304;8.428;2023-03-01T02:49:52;30.25;;;18.25;;
46036;SDS011;31769;49.304;8.428;2023-03-01T02:55:57;27.38;;;17.52;;
46036;SDS011;31769;49.304;8.428;2023-03-01T02:58:59;29.13;;;17.38;;
46036;SDS011;31769;49.304;8.428;2023-03-01T03:02:02;27.83;;;21.17;;
46036;SDS011;31769;49.304;8.428;2023-03-01T03:05:13;25.13;;;20.95;;
46036;SDS011;31769;49.304;8.428;2023-03-01T03:08:16;29.20;;;22.23;;
46036;SDS011;31769;49.304;8.428;2023-03-01T03:11:24;26.75;;;21.17;;
46036;SDS011;31769;49.304;8.428;2023-03-01T03:14:25;25.60;;;21.02;;
46036;SDS011;31769;49.304;8.428;2023-03-01T03:17:26;27.52;;;21.15;;
46036;SDS011;31769;49.304;8.428;2023-03-01T03:20:27;26.85;;;20.60;;
46036;SDS011;31769;49.304;8.428;2023-03-01T03:23:29;63.00;;;49.47;;
46036;SDS011;31769;49.304;8.428;2023-03-01T03:26:30;56.40;;;36.33;;
46036;SDS011;31769;49.304;8.428;2023-03-01T03:29:31;33.15;;;20.40;;
46036;SDS011;31769;49.304;8.428;2023-03-01T03:32:32;31.83;;;20.00;;
46036;SDS011;31769;49.304;8.428;2023-03-01T03:35:37;28.88;;;19.27;;
46036;SDS011;31769;49.304;8.428;2023-03-01T03:38:40;32.22;;;21.27;;
46036;SDS011;31769;49.304;8.428;2023-03-01T03:41:40;27.08;;;18.75;;
46036;SDS011;31769;49.304;8.428;2023-03-01T03:44:41;31.65;;;18.98;;
46036;SDS011;31769;49.304;8.428;2023-03-01T03:47:42;33.22;;;18.42;;
46036;SDS011;31769;49.304;8.428;2023-03-01T03:50:47;29.23;;;18.23;;
46036;SDS011;31769;49.304;8.428;2023-03-01T03:53:49;34.38;;;19.50;;
46036;SDS011;31769;49.304;8.428;2023-03-01T03:56:50;31.52;;;19.67;;
46036;SDS011;31769;49.304;8.428;2023-03-01T03:59:50;30.88;;;19.00;;
46036;SDS011;31769;49.304;8.428;2023-03-01T04:02:52;37.22;;;20.77;;
46036;SDS011;31769;49.304;8.428;2023-03-01T04:05:59;30.52;;;18.73;;
46036;SDS011;31769;49.304;8.428;2023-03-01T04:09:00;33.28;;;21.55;;
46036;SDS011;31769;49.304;8.428;2023-03-01T04:12:02;30.27;;;20.63;;
46036;SDS011;31769;49.304;8.428;2023-03-01T04:15:03;33.83;;;21.65;;
46036;SDS011;31769;49.304;8.428;2023-03-01T04:18:14;33.38;;;20.05;;
46036;SDS011;31769;49.304;8.428;2023-03-01T04:21:15;32.00;;;20.50;;
46036;SDS011;31769;49.304;8.428;2023-03-01T04:24:16;33.25;;;22.25;;
46036;SDS011;31769;49.304;8.428;2023-03-01T04:27:17;35.10;;;20.67;;
46036;SDS011;31769;49.304;8.428;2023-03-01T04:30:17;34.30;;;19.52;;
46036;SDS011;31769;49.304;8.428;2023-03-01T04:33:18;33.75;;;20.98;;
46036;SDS011;31769;49.304;8.428;2023-03-01T04:36:21;32.65;;;20.33;;
46036;SDS011;31769;49.304;8.428;2023-03-01T04:39:24;43.50;;;21.83;;
46036;SDS011;31769;49.304;8.428;2023-03-01T04:42:24;35.67;;;21.10;;
46036;SDS011;31769;49.304;8.428;2023-03-01T04:45:25;34.97;;;23.38;;
46036;SDS011;31769;49.304;8.428;2023-03-01T04:48:26;35.03;;;21.23;;
46036;SDS011;31769;49.304;8.428;2023-03-01T04:51:27;36.47;;;20.83;;
46036;SDS011;31769;49.304;8.428;2023-03-01T04:54:28;37.20;;;21.92;;
46036;SDS011;31769;49.304;8.428;2023-03-01T04:57:30;40.15;;;21.90;;
46036;SDS011;31769;49.304;8.428;2023-03-01T05:00:31;36.03;;;22.05;;
46036;SDS011;31769;49.304;8.428;2023-03-01T05:03:31;41.88;;;21.58;;
46036;SDS011;31769;49.304;8.428;2023-03-01T05:06:32;38.53;;;22.88;;
46036;SDS011;31769;49.304;8.428;2023-03-01T05:09:34;34.50;;;25.17;;
46036;SDS011;31769;49.304;8.428;2023-03-01T05:12:34;36.92;;;23.67;;
46036;SDS011;31769;49.304;8.428;2023-03-01T05:15:37;33.72;;;26.33;;
46036;SDS011;31769;49.304;8.428;2023-03-01T05:18:38;38.03;;;22.38;;
46036;SDS011;31769;49.304;8.428;2023-03-01T05:21:39;32.42;;;22.48;;
46036;SDS011;31769;49.304;8.428;2023-03-01T05:25:00;38.90;;;23.90;;
46036;SDS011;31769;49.304;8.428;2023-03-01T05:28:01;38.97;;;22.90;;
46036;SDS011;31769;49.304;8.428;2023-03-01T05:31:04;40.70;;;22.27;;
46036;SDS011;31769;49.304;8.428;2023-03-01T05:34:09;35.00;;;23.45;;
46036;SDS011;31769;49.304;8.428;2023-03-01T05:37:13;35.50;;;22.45;;
46036;SDS011;31769;49.304;8.428;2023-03-01T05:40:18;35.50;;;27.23;;
46036;SDS011;31769;49.304;8.428;2023-03-01T05:43:20;37.50;;;22.87;;
46036;SDS011;31769;49.304;8.428;2023-03-01T05:46:21;36.63;;;22.95;;
46036;SDS011;31769;49.304;8.428;2023-03-01T05:49:24;36.47;;;26.73;;
46036;SDS011;31769;49.304;8.428;2023-03-01T05:52:25;36.05;;;26.30;;
46036;SDS011;31769;49.304;8.428;2023-03-01T05:55:27;35.58;;;22.40;;
46036;SDS011;31769;49.304;8.428;2023-03-01T05:58:29;38.10;;;27.70;;
46036;SDS011;31769;49.304;8.428;2023-03-01T06:01:29;37.70;;;22.98;;
46036;SDS011;31769;49.304;8.428;2023-03-01T06:04:30;38.65;;;23.42;;
46036;SDS011;31769;49.304;8.428;2023-03-01T06:07:31;37.35;;;23.38;;
46036;SDS011;31769;49.304;8.428;2023-03-01T06:10:32;36.17;;;27.50;;
46036;SDS011;31769;49.304;8.428;2023-03-01T06:13:33;42.55;;;22.75;;
46036;SDS011;31769;49.304;8.428;2023-03-01T06:16:33;36.47;;;21.20;;
46036;SDS011;31769;49.304;8.428;2023-03-01T06:19:34;40.35;;;21.83;;
46036;SDS011;31769;49.304;8.428;2023-03-01T06:22:35;38.25;;;23.33;;
46036;SDS011;31769;49.304;8.428;2023-03-01T06:25:36;42.80;;;23.85;;
46036;SDS011;31769;49.304;8.428;2023-03-01T06:28:37;40.05;;;24.17;;
46036;SDS011;31769;49.304;8.428;2023-03-01T06:31:38;38.67;;;22.60;;
46036;SDS011;31769;49.304;8.428;2023-03-01T06:34:38;45.47;;;24.20;;
46036;SDS011;31769;49.304;8.428;2023-03-01T06:37:40;43.53;;;24.27;;
46036;SDS011;31769;49.304;8.428;2023-03-01T06:40:41;40.50;;;24.60;;
46036;SDS011;31769;49.304;8.428;2023-03-01T06:43:42;37.75;;;23.80;;
46036;SDS011;31769;49.304;8.428;2023-03-01T06:46:42;43.30;;;25.30;;
46036;SDS011;31769;49.304;8.428;2023-03-01T06:49:43;42.05;;;25.20;;
46036;SDS011;31769;49.304;8.428;2023-03-01T06:52:44;40.60;;;24.75;;
46036;SDS011;31769;49.304;8.428;2023-03-01T06:55:45;41.33;;;25.00;;
46036;SDS011;31769;49.304;8.428;2023-03-01T06:58:45;43.90;;;26.42;;
46036;SDS011;31769;49.304;8.428;2023-03-01T07:01:46;40.17;;;24.58;;
46036;SDS011;31769;49.304;8.428;2023-03-01T07:04:48;41.60;;;26.25;;
46036;SDS011;31769;49.304;8.428;2023-03-01T07:07:49;40.83;;;26.27;;
46036;SDS011;31769;49.304;8.428;2023-03-01T07:10:59;44.30;;;25.90;;
46036;SDS011;31769;49.304;8.428;2023-03-01T07:14:02;44.00;;;25.73;;
46036;SDS011;31769;49.304;8.428;2023-03-01T07:17:03;42.47;;;26.73;;
46036;SDS011;31769;49.304;8.428;2023-03-01T07:20:04;43.10;;;27.00;;
46036;SDS011;31769;49.304;8.428;2023-03-01T07:23:05;45.05;;;27.45;;
46036;SDS011;31769;49.304;8.428;2023-03-01T07:26:06;42.35;;;27.25;;
46036;SDS011;31769;49.304;8.428;2023-03-01T07:29:07;40.92;;;26.70;;
46036;SDS011;31769;49.304;8.428;2023-03-01T07:32:10;41.17;;;27.88;;
46036;SDS011;31769;49.304;8.428;2023-03-01T07:35:11;40.33;;;27.48;;
46036;SDS011;31769;49.304;8.428;2023-03-01T07:38:12;39.72;;;27.25;;
46036;SDS011;31769;49.304;8.428;2023-03-01T07:41:12;43.20;;;26.60;;
46036;SDS011;31769;49.304;8.428;2023-03-01T07:44:14;43.05;;;26.92;;
46036;SDS011;31769;49.304;8.428;2023-03-01T07:47:16;38.08;;;25.65;;
46036;SDS011;31769;49.304;8.428;2023-03-01T07:50:17;40.60;;;26.67;;
46036;SDS011;31769;49.304;8.428;2023-03-01T07:53:18;45.05;;;27.08;;
46036;SDS011;31769;49.304;8.428;2023-03-01T07:56:19;38.33;;;26.77;;
46036;SDS011;31769;49.304;8.428;2023-03-01T07:59:21;35.22;;;24.50;;
46036;SDS011;31769;49.304;8.428;2023-03-01T08:02:23;36.70;;;25.20;;
46036;SDS011;31769;49.304;8.428;2023-03-01T08:05:24;36.97;;;25.17;;
46036;SDS011;31769;49.304;8.428;2023-03-01T08:08:25;39.58;;;25.52;;
46036;SDS011;31769;49.304;8.428;2023-03-01T08:11:25;35.00;;;25.58;;
46036;SDS011;31769;49.304;8.428;2023-03-01T08:14:28;38.30;;;25.48;;
46036;SDS011;31769;49.304;8.428;2023-03-01T08:17:28;35.78;;;25.95;;
46036;SDS011;31769;49.304;8.428;2023-03-01T08:20:29;39.35;;;26.20;;
46036;SDS011;31769;49.304;8.428;2023-03-01T08:23:30;34.70;;;24.40;;
46036;SDS011;31769;49.304;8.428;2023-03-01T08:26:31;35.25;;;24.85;;
46036;SDS011;31769;49.304;8.428;2023-03-01T08:29:32;35.20;;;25.10;;
46036;SDS011;31769;49.304;8.428;2023-03-01T08:32:36;38.63;;;24.98;;
46036;SDS011;31769;49.304;8.428;2023-03-01T08:35:38;35.10;;;25.55;;
46036;SDS011;31769;49.304;8.428;2023-03-01T08:38:39;36.10;;;25.70;;
46036;SDS011;31769;49.304;8.428;2023-03-01T08:41:40;33.75;;;25.30;;
46036;SDS011;31769;49.304;8.428;2023-03-01T08:44:40;38.83;;;25.48;;
46036;SDS011;31769;49.304;8.428;2023-03-01T08:47:41;36.33;;;25.25;;
46036;SDS011;31769;49.304;8.428;2023-03-01T08:50:42;34.33;;;25.17;;
46036;SDS011;31769;49.304;8.428;2023-03-01T08:53:43;35.53;;;25.35;;
46036;SDS011;31769;49.304;8.428;2023-03-01T08:56:44;33.60;;;24.45;;
46036;SDS011;31769;49.304;8.428;2023-03-01T08:59:45;36.90;;;25.15;;
46036;SDS011;31769;49.304;8.428;2023-03-01T09:02:46;34.72;;;25.30;;
46036;SDS011;31769;49.304;8.428;2023-03-01T09:05:46;40.00;;;29.65;;
46036;SDS011;31769;49.304;8.428;2023-03-01T09:08:49;36.70;;;26.88;;
46036;SDS011;31769;49.304;8.428;2023-03-01T09:11:51;34.40;;;25.17;;
46036;SDS011;31769;49.304;8.428;2023-03-01T09:14:51;33.53;;;25.38;;
46036;SDS011;31769;49.304;8.428;2023-03-01T09:17:52;32.72;;;24.73;;
46036;SDS011;31769;49.304;8.428;2023-03-01T09:20:53;32.70;;;24.52;;
46036;SDS011;31769;49.304;8.428;2023-03-01T09:24:00;36.20;;;25.40;;
46036;SDS011;31769;49.304;8.428;2023-03-01T09:27:01;33.65;;;24.58;;
46036;SDS011;31769;49.304;8.428;2023-03-01T09:30:03;33.33;;;25.45;;
46036;SDS011;31769;49.304;8.428;2023-03-01T09:33:04;34.88;;;24.88;;
46036;SDS011;31769;49.304;8.428;2023-03-01T09:36:06;32.13;;;25.25;;
46036;SDS011;31769;49.304;8.428;2023-03-01T09:39:08;30.45;;;23.23;;
46036;SDS011;31769;49.304;8.428;2023-03-01T09:42:11;29.75;;;23.58;;
46036;SDS011;31769;49.304;8.428;2023-03-01T09:45:16;30.45;;;24.60;;
46036;SDS011;31769;49.304;8.428;2023-03-01T09:48:26;30.33;;;23.38;;
46036;SDS011;31769;49.304;8.428;2023-03-01T09:51:38;31.00;;;24.05;;
46036;SDS011;31769;49.304;8.428;2023-03-01T09:54:39;30.15;;;24.02;;
46036;SDS011;31769;49.304;8.428;2023-03-01T09:57:45;31.27;;;26.20;;
46036;SDS011;31769;49.304;8.428;2023-03-01T10:00:50;31.10;;;26.88;;
46036;SDS011;31769;49.304;8.428;2023-03-01T10:07:47;30.05;;;25.25;;
46036;SDS011;31769;49.304;8.428;2023-03-01T10:11:00;31.55;;;26.45;;
46036;SDS011;31769;49.304;8.428;2023-03-01T10:14:06;32.80;;;26.27;;
46036;SDS011;31769;49.304;8.428;2023-03-01T10:17:24;32.15;;;25.73;;
46036;SDS011;31769;49.304;8.428;2023-03-01T10:20:52;29.67;;;25.67;;
46036;SDS011;31769;49.304;8.428;2023-03-01T10:23:55;31.30;;;25.38;;
46036;SDS011;31769;49.304;8.428;2023-03-01T10:30:21;30.00;;;23.60;;
46036;SDS011;31769;49.304;8.428;2023-03-01T10:33:32;31.05;;;24.58;;
46036;SDS011;31769;49.304;8.428;2023-03-01T10:36:37;30.13;;;25.73;;
46036;SDS011;31769;49.304;8.428;2023-03-01T10:43:10;30.42;;;26.33;;
46036;SDS011;31769;49.304;8.428;2023-03-01T10:46:25;32.88;;;26.08;;
46036;SDS011;31769;49.304;8.428;2023-03-01T10:49:34;27.33;;;23.48;;
46036;SDS011;31769;49.304;8.428;2023-03-01T10:52:36;27.20;;;24.27;;
46036;SDS011;31769;49.304;8.428;2023-03-01T10:55:40;30.25;;;25.42;;
46036;SDS011;31769;49.304;8.428;2023-03-01T11:05:22;27.33;;;23.83;;
46036;SDS011;31769;49.304;8.428;2023-03-01T11:08:35;27.92;;;23.55;;
46036;SDS011;31769;49.304;8.428;2023-03-01T11:11:37;26.38;;;23.35;;
46036;SDS011;31769;49.304;8.428;2023-03-01T11:14:38;34.72;;;23.05;;
46036;SDS011;31769;49.304;8.428;2023-03-01T11:17:45;27.27;;;23.45;;
46036;SDS011;31769;49.304;8.428;2023-03-01T11:20:46;28.05;;;22.70;;
46036;SDS011;31769;49.304;8.428;2023-03-01T11:23:49;32.15;;;23.25;;
46036;SDS011;31769;49.304;8.428;2023-03-01T11:26:51;24.90;;;21.95;;
46036;SDS011;31769;49.304;8.428;2023-03-01T11:40:11;26.65;;;22.25;;
46036;SDS011;31769;49.304;8.428;2023-03-01T11:43:20;25.80;;;22.05;;
46036;SDS011;31769;49.304;8.428;2023-03-01T11:46:44;26.75;;;20.95;;
46036;SDS011;31769;49.304;8.428;2023-03-01T12:16:22;21.23;;;18.10;;
46036;SDS011;31769;49.304;8.428;2023-03-01T12:33:36;16.13;;;14.52;;
46036;SDS011;31769;49.304;8.428;2023-03-01T12:43:23;15.88;;;14.23;;
46036;SDS011;31769;49.304;8.428;2023-03-01T12:46:47;14.80;;;13.30;;
46036;SDS011;31769;49.304;8.428;2023-03-01T12:50:34;13.60;;;12.27;;
46036;SDS011;31769;49.304;8.428;2023-03-01T12:53:31;13.30;;;12.15;;
46036;SDS011;31769;49.304;8.428;2023-03-01T12:56:35;13.00;;;11.85;;
46036;SDS011;31769;49.304;8.428;2023-03-01T12:59:39;12.85;;;11.57;;
46036;SDS011;31769;49.304;8.428;2023-03-01T13:03:02;12.63;;;11.57;;
46036;SDS011;31769;49.304;8.428;2023-03-01T13:13:23;13.30;;;11.82;;
46036;SDS011;31769;49.304;8.428;2023-03-01T13:19:30;13.32;;;12.13;;
46036;SDS011;31769;49.304;8.428;2023-03-01T13:28:58;13.02;;;11.73;;
46036;SDS011;31769;49.304;8.428;2023-03-01T13:32:01;13.93;;;12.60;;
46036;SDS011;31769;49.304;8.428;2023-03-01T13:44:38;12.93;;;11.50;;
46036;SDS011;31769;49.304;8.428;2023-03-01T13:47:43;14.00;;;12.15;;
46036;SDS011;31769;49.304;8.428;2023-03-01T13:50:47;14.65;;;13.23;;
46036;SDS011;31769;49.304;8.428;2023-03-01T13:54:01;13.25;;;11.88;;
46036;SDS011;31769;49.304;8.428;2023-03-01T13:57:01;14.52;;;12.15;;
46036;SDS011;31769;49.304;8.428;2023-03-01T14:00:03;13.88;;;11.85;;
46036;SDS011;31769;49.304;8.428;2023-03-01T14:06:23;13.15;;;11.57;;
46036;SDS011;31769;49.304;8.428;2023-03-01T14:09:26;13.10;;;11.88;;
46036;SDS011;31769;49.304;8.428;2023-03-01T14:15:56;15.75;;;10.95;;
46036;SDS011;31769;49.304;8.428;2023-03-01T14:22:37;12.43;;;11.23;;
46036;SDS011;31769;49.304;8.428;2023-03-01T14:25:51;14.00;;;12.55;;
46036;SDS011;31769;49.304;8.428;2023-03-01T14:28:54;13.82;;;12.52;;
46036;SDS011;31769;49.304;8.428;2023-03-01T14:32:01;14.80;;;13.30;;
46036;SDS011;31769;49.304;8.428;2023-03-01T14:35:32;15.70;;;13.63;;
46036;SDS011;31769;49.304;8.428;2023-03-01T14:38:36;14.07;;;12.40;;
46036;SDS011;31769;49.304;8.428;2023-03-01T14:41:38;14.35;;;12.50;;
46036;SDS011;31769;49.304;8.428;2023-03-01T14:44:40;14.38;;;12.25;;
46036;SDS011;31769;49.304;8.428;2023-03-01T14:47:46;13.90;;;12.60;;
46036;SDS011;31769;49.304;8.428;2023-03-01T14:50:48;14.55;;;12.95;;
46036;SDS011;31769;49.304;8.428;2023-03-01T14:53:50;15.68;;;12.43;;
46036;SDS011;31769;49.304;8.428;2023-03-01T14:56:52;13.18;;;11.88;;
46036;SDS011;31769;49.304;8.428;2023-03-01T14:59:58;13.77;;;11.05;;
46036;SDS011;31769;49.304;8.428;2023-03-01T15:03:13;12.82;;;11.55;;
46036;SDS011;31769;49.304;8.428;2023-03-01T15:06:24;11.60;;;10.18;;
46036;SDS011;31769;49.304;8.428;2023-03-01T15:09:25;11.65;;;10.45;;
46036;SDS011;31769;49.304;8.428;2023-03-01T15:18:34;13.05;;;10.50;;
46036;SDS011;31769;49.304;8.428;2023-03-01T15:21:37;11.45;;;10.20;;
46036;SDS011;31769;49.304;8.428;2023-03-01T15:24:38;14.48;;;10.55;;
46036;SDS011;31769;49.304;8.428;2023-03-01T15:27:39;10.52;;;9.52;;
46036;SDS011;31769;49.304;8.428;2023-03-01T15:30:46;11.00;;;9.40;;
46036;SDS011;31769;49.304;8.428;2023-03-01T15:37:44;10.15;;;9.15;;
46036;SDS011;31769;49.304;8.428;2023-03-01T15:40:49;9.38;;;8.57;;
46036;SDS011;31769;49.304;8.428;2023-03-01T15:43:51;9.68;;;8.73;;
46036;SDS011;31769;49.304;8.428;2023-03-01T15:46:55;9.30;;;8.40;;
46036;SDS011;31769;49.304;8.428;2023-03-01T15:49:57;9.75;;;8.20;;
46036;SDS011;31769;49.304;8.428;2023-03-01T15:53:00;8.68;;;7.88;;
46036;SDS011;31769;49.304;8.428;2023-03-01T15:56:04;9.43;;;7.70;;
46036;SDS011;31769;49.304;8.428;2023-03-01T15:59:08;9.90;;;8.27;;
46036;SDS011;31769;49.304;8.428;2023-03-01T16:02:11;9.52;;;8.52;;
46036;SDS011;31769;49.304;8.428;2023-03-01T16:05:17;12.07;;;8.52;;
46036;SDS011;31769;49.304;8.428;2023-03-01T16:08:21;9.43;;;8.52;;
46036;SDS011;31769;49.304;8.428;2023-03-01T16:11:22;10.60;;;9.68;;
46036;SDS011;31769;49.304;8.428;2023-03-01T16:14:23;10.70;;;9.60;;
46036;SDS011;31769;49.304;8.428;2023-03-01T16:17:24;11.63;;;10.43;;
46036;SDS011;31769;49.304;8.428;2023-03-01T16:20:26;12.30;;;10.95;;
46036;SDS011;31769;49.304;8.428;2023-03-01T16:23:27;17.08;;;13.30;;
46036;SDS011;31769;49.304;8.428;2023-03-01T16:26:28;65.35;;;39.80;;
46036;SDS011;31769;49.304;8.428;2023-03-01T16:29:28;69.60;;;42.30;;
46036;SDS011;31769;49.304;8.428;2023-03-01T16:32:29;29.48;;;20.70;;
46036;SDS011;31769;49.304;8.428;2023-03-01T16:35:30;22.45;;;16.10;;
46036;SDS011;31769;49.304;8.428;2023-03-01T16:38:30;19.35;;;16.25;;
46036;SDS011;31769;49.304;8.428;2023-03-01T16:41:32;17.95;;;14.63;;
46036;SDS011;31769;49.304;8.428;2023-03-01T16:44:32;16.65;;;13.95;;
46036;SDS011;31769;49.304;8.428;2023-03-01T16:47:33;19.75;;;14.07;;
46036;SDS011;31769;49.304;8.428;2023-03-01T16:50:34;24.27;;;18.52;;
46036;SDS011;31769;49.304;8.428;2023-03-01T16:53:35;51.72;;;36.55;;
46036;SDS011;31769;49.304;8.428;2023-03-01T16:56:37;45.47;;;29.83;;
46036;SDS011;31769;49.304;8.428;2023-03-01T16:59:39;34.15;;;24.20;;
46036;SDS011;31769;49.304;8.428;2023-03-01T17:02:40;31.88;;;20.05;;
46036;SDS011;31769;49.304;8.428;2023-03-01T17:05:41;21.38;;;14.98;;
46036;SDS011;31769;49.304;8.428;2023-03-01T17:08:42;22.33;;;15.68;;
46036;SDS011;31769;49.304;8.428;2023-03-01T17:11:43;16.65;;;14.15;;
46036;SDS011;31769;49.304;8.428;2023-03-01T17:14:43;22.23;;;15.82;;
46036;SDS011;31769;49.304;8.428;2023-03-01T17:17:44;42.70;;;26.15;;
46036;SDS011;31769;49.304;8.428;2023-03-01T17:20:45;26.80;;;18.75;;
46036;SDS011;31769;49.304;8.428;2023-03-01T17:23:46;27.27;;;20.90;;
46036;SDS011;31769;49.304;8.428;2023-03-01T17:26:47;29.77;;;22.20;;
46036;SDS011;31769;49.304;8.428;2023-03-01T17:29:48;45.60;;;30.42;;
46036;SDS011;31769;49.304;8.428;2023-03-01T17:32:48;27.45;;;19.25;;
46036;SDS011;31769;49.304;8.428;2023-03-01T17:35:49;34.10;;;21.45;;
46036;SDS011;31769;49.304;8.428;2023-03-01T17:38:50;36.83;;;22.38;;
46036;SDS011;31769;49.304;8.428;2023-03-01T17:41:51;37.08;;;22.30;;
46036;SDS011;31769;49.304;8.428;2023-03-01T17:44:53;39.60;;;23.60;;
46036;SDS011;31769;49.304;8.428;2023-03-01T17:47:53;42.13;;;23.67;;
46036;SDS011;31769;49.304;8.428;2023-03-01T17:50:54;43.35;;;23.48;;
46036;SDS011;31769;49.304;8.428;2023-03-01T17:53:55;39.38;;;23.10;;
46036;SDS011;31769;49.304;8.428;2023-03-01T17:56:55;49.03;;;27.25;;
46036;SDS011;31769;49.304;8.428;2023-03-01T17:59:57;41.75;;;24.30;;
46036;SDS011;31769;49.304;8.428;2023-03-01T18:02:58;33.38;;;20.60;;
46036;SDS011;31769;49.304;8.428;2023-03-01T18:05:59;32.30;;;21.58;;
46036;SDS011;31769;49.304;8.428;2023-03-01T18:09:00;38.97;;;22.52;;
46036;SDS011;31769;49.304;8.428;2023-03-01T18:12:00;34.25;;;21.90;;
46036;SDS011;31769;49.304;8.428;2023-03-01T18:15:01;32.03;;;20.67;;
46036;SDS011;31769;49.304;8.428;2023-03-01T18:18:02;30.80;;;19.92;;
46036;SDS011;31769;49.304;8.428;2023-03-01T18:21:02;28.50;;;19.52;;
46036;SDS011;31769;49.304;8.428;2023-03-01T18:24:04;23.88;;;17.65;;
46036;SDS011;31769;49.304;8.428;2023-03-01T18:27:05;26.30;;;18.33;;
46036;SDS011;31769;49.304;8.428;2023-03-01T18:30:07;28.15;;;19.52;;
46036;SDS011;31769;49.304;8.428;2023-03-01T18:33:08;27.52;;;18.35;;
46036;SDS011;31769;49.304;8.428;2023-03-01T18:36:22;28.23;;;17.80;;
46036;SDS011;31769;49.304;8.428;2023-03-01T18:39:25;26.38;;;17.08;;
46036;SDS011;31769;49.304;8.428;2023-03-01T18:42:26;23.38;;;16.30;;
46036;SDS011;31769;49.304;8.428;2023-03-01T18:45:29;25.98;;;16.60;;
46036;SDS011;31769;49.304;8.428;2023-03-01T18:48:30;27.52;;;17.95;;
46036;SDS011;31769;49.304;8.428;2023-03-01T18:51:31;31.08;;;19.25;;
46036;SDS011;31769;49.304;8.428;2023-03-01T18:54:34;28.02;;;19.40;;
46036;SDS011;31769;49.304;8.428;2023-03-01T18:57:35;35.55;;;22.17;;
46036;SDS011;31769;49.304;8.428;2023-03-01T19:00:35;33.50;;;22.52;;
46036;SDS011;31769;49.304;8.428;2023-03-01T19:03:36;33.65;;;22.40;;
46036;SDS011;31769;49.304;8.428;2023-03-01T19:06:37;34.15;;;20.67;;
46036;SDS011;31769;49.304;8.428;2023-03-01T19:09:40;32.75;;;20.85;;
46036;SDS011;31769;49.304;8.428;2023-03-01T19:12:41;32.08;;;20.83;;
46036;SDS011;31769;49.304;8.428;2023-03-01T19:15:41;30.77;;;20.27;;
46036;SDS011;31769;49.304;8.428;2023-03-01T19:18:42;27.25;;;18.77;;
46036;SDS011;31769;49.304;8.428;2023-03-01T19:21:49;32.22;;;19.42;;
46036;SDS011;31769;49.304;8.428;2023-03-01T19:24:49;30.98;;;19.02;;
46036;SDS011;31769;49.304;8.428;2023-03-01T19:27:50;29.98;;;18.95;;
46036;SDS011;31769;49.304;8.428;2023-03-01T19:30:51;32.20;;;19.83;;
46036;SDS011;31769;49.304;8.428;2023-03-01T19:33:56;32.63;;;19.92;;
46036;SDS011;31769;49.304;8.428;2023-03-01T19:36:57;31.55;;;21.30;;
46036;SDS011;31769;49.304;8.428;2023-03-01T19:39:58;30.27;;;20.70;;
46036;SDS011;31769;49.304;8.428;2023-03-01T19:42:59;31.80;;;20.67;;
46036;SDS011;31769;49.304;8.428;2023-03-01T19:45:59;35.22;;;21.75;;
46036;SDS011;31769;49.304;8.428;2023-03-01T19:49:00;30.50;;;21.27;;
46036;SDS011;31769;49.304;8.428;2023-03-01T19:52:02;35.75;;;20.20;;
46036;SDS011;31769;49.304;8.428;2023-03-01T19:55:03;32.67;;;20.98;;
46036;SDS011;31769;49.304;8.428;2023-03-01T19:58:05;29.13;;;19.67;;
46036;SDS011;31769;49.304;8.428;2023-03-01T20:01:16;39.70;;;21.70;;
46036;SDS011;31769;49.304;8.428;2023-03-01T20:04:19;32.63;;;21.23;;
46036;SDS011;31769;49.304;8.428;2023-03-01T20:07:20;33.92;;;21.70;;